createdAt,value
2022-09-18T00:04:26.008Z,100.00
2022-09-18T00:14:54.851Z,100.00
2022-09-18T00:25:24.207Z,100.00
2022-09-18T00:36:31.358Z,100.00
2022-09-18T00:47:44.439Z,100.00
2022-09-18T00:58:18.395Z,100.00
2022-09-18T01:09:00.433Z,100.00
2022-09-18T01:19:26.615Z,100.00
2022-09-18T01:30:12.406Z,100.00
2022-09-18T01:40:45.601Z,100.00
2022-09-18T01:51:14.527Z,100.00
2022-09-18T02:01:20.953Z,100.00
2022-09-18T02:11:47.905Z,100.00
2022-09-18T02:22:21.328Z,100.00
2022-09-18T02:32:38.250Z,100.00
2022-09-18T02:43:18.429Z,100.00
2022-09-18T02:53:41.588Z,100.00
2022-09-18T03:03:52.919Z,100.00
2022-09-18T03:14:28.680Z,100.00
2022-09-18T03:24:47.901Z,100.00
2022-09-18T03:35:12.040Z,100.00
2022-09-18T03:45:48.538Z,100.00
2022-09-18T03:56:19.833Z,100.00
2022-09-18T04:07:01.819Z,100.00
2022-09-18T04:17:36.990Z,100.00
2022-09-18T04:28:34.000Z,100.00
2022-09-18T04:39:13.713Z,100.00
2022-09-18T04:50:11.428Z,100.00
2022-09-18T05:00:53.869Z,100.00
2022-09-18T05:11:59.509Z,100.00
2022-09-18T05:22:55.594Z,100.00
2022-09-18T05:33:12.183Z,100.00
2022-09-18T05:43:55.819Z,100.00
2022-09-18T05:54:38.777Z,100.00
2022-09-18T06:05:28.520Z,100.00
2022-09-18T06:15:59.523Z,100.00
2022-09-18T06:26:31.421Z,100.00
2022-09-18T06:37:24.129Z,100.00
2022-09-18T06:48:32.186Z,100.00
2022-09-18T06:59:00.743Z,100.00
2022-09-18T07:09:21.123Z,100.00
2022-09-18T07:19:37.345Z,100.00
2022-09-18T07:30:15.454Z,100.00
2022-09-18T07:40:22.566Z,100.00
2022-09-18T07:51:48.191Z,100.00
2022-09-18T08:02:41.104Z,100.00
2022-09-18T08:12:48.437Z,100.00
2022-09-18T08:23:38.074Z,100.00
2022-09-18T08:34:08.277Z,100.00
2022-09-18T08:45:14.794Z,100.00
2022-09-18T08:56:22.053Z,100.00
2022-09-18T09:07:53.079Z,100.00
2022-09-18T09:18:45.452Z,100.00
2022-09-18T09:29:15.922Z,100.00
2022-09-18T09:40:08.074Z,99.34
2022-09-18T09:51:22.037Z,98.51
2022-09-18T10:01:46.492Z,94.81
2022-09-18T10:12:23.197Z,93.31
2022-09-18T10:22:39.216Z,90.44
2022-09-18T10:32:53.327Z,88.73
2022-09-18T10:43:19.366Z,86.74
2022-09-18T10:53:32.597Z,86.72
2022-09-18T11:04:12.008Z,85.67
2022-09-18T11:14:27.502Z,84.51
2022-09-18T11:24:53.666Z,83.34
2022-09-18T11:35:18.505Z,81.72
2022-09-18T11:45:53.130Z,80.94
2022-09-18T11:56:41.028Z,78.86
2022-09-18T12:07:39.219Z,77.81
2022-09-18T12:17:57.129Z,77.03
2022-09-18T12:28:58.908Z,76.76
2022-09-18T12:39:39.405Z,76.82
2022-09-18T12:50:17.407Z,75.65
2022-09-18T13:00:50.585Z,75.10
2022-09-18T13:11:01.959Z,75.64
2022-09-18T13:21:10.477Z,76.03
2022-09-18T13:31:37.865Z,77.52
2022-09-18T13:41:48.446Z,78.67
2022-09-18T13:52:29.735Z,78.52
2022-09-18T14:03:14.221Z,79.17
2022-09-18T14:13:29.299Z,79.69
2022-09-18T14:24:02.963Z,79.28
2022-09-18T14:34:40.348Z,79.51
2022-09-18T14:45:28.109Z,80.43
2022-09-18T14:56:08.039Z,81.87
2022-09-18T15:06:17.536Z,82.90
2022-09-18T15:16:32.953Z,83.55
2022-09-18T15:26:44.722Z,84.01
2022-09-18T15:37:05.640Z,84.56
2022-09-18T15:48:07.401Z,84.80
2022-09-18T15:58:56.690Z,84.65
2022-09-18T16:10:16.815Z,84.90
2022-09-18T16:21:05.262Z,85.12
2022-09-18T16:31:48.691Z,84.88
2022-09-18T16:42:39.509Z,85.26
2022-09-18T16:52:48.238Z,85.73
2022-09-18T17:03:00.641Z,85.58
2022-09-18T17:13:16.688Z,86.13
2022-09-18T17:23:36.898Z,86.02
2022-09-18T17:33:48.009Z,86.73
2022-09-18T17:44:28.698Z,87.68
2022-09-18T17:54:57.417Z,88.52
2022-09-18T18:06:11.459Z,88.77
2022-09-18T18:16:41.491Z,88.00
2022-09-18T18:27:01.227Z,87.74
2022-09-18T18:37:25.003Z,88.81
2022-09-18T18:47:34.095Z,90.73
2022-09-18T18:57:42.880Z,91.97
2022-09-18T19:08:09.520Z,93.22
2022-09-18T19:18:36.608Z,94.06
2022-09-18T19:28:45.846Z,94.95
2022-09-18T19:39:13.233Z,96.09
2022-09-18T19:49:40.236Z,97.46
2022-09-18T20:00:13.239Z,98.28
2022-09-18T20:10:39.941Z,98.93
2022-09-18T20:21:29.474Z,99.71
2022-09-18T20:32:02.923Z,99.91
2022-09-18T20:43:03.280Z,100.00
2022-09-18T20:53:43.372Z,100.00
2022-09-18T21:04:18.456Z,100.00
2022-09-18T21:14:54.701Z,100.00
2022-09-18T21:25:14.754Z,100.00
2022-09-18T21:35:43.786Z,100.00
2022-09-18T21:45:58.380Z,100.00
2022-09-18T21:56:32.837Z,100.00
2022-09-18T22:07:02.711Z,100.00
2022-09-18T22:17:19.762Z,100.00
2022-09-18T22:27:29.439Z,100.00
2022-09-18T22:37:35.291Z,100.00
2022-09-18T22:47:41.759Z,100.00
2022-09-18T22:58:36.228Z,99.95
2022-09-18T23:09:06.831Z,99.33
2022-09-18T23:19:36.269Z,98.58
2022-09-18T23:29:51.325Z,97.60
2022-09-18T23:40:01.059Z,97.61
2022-09-18T23:50:30.861Z,96.96
